LDSB/BWK METAR and TAF weather

Enter ICAO airport designator
Station Type Date Time Source
LDSB METAR 2019/06/25 14:00 UTC NOAA

LDSB 251400Z 02011KT 350V050 9999 FEW055 29/15 Q1021


Station Type Date Time Source
LDSB Decoded METAR 2019/06/25 14:00 UTC NOAA

Brac, Croatia (LDSB) 43-17-09N 016-40-47E
Jun 25, 2019 - 10:00 AM EDT / 2019.06.25 1400 UTC
Wind: from the NNE (020 degrees) at 13 MPH (11 KT) (direction variable):0
Visibility: greater than 7 mile(s):0
Sky conditions: mostly clear
Temperature: 84 F (29 C)
Dew Point: 59 F (15 C)
Relative Humidity: 42%
Pressure (altimeter): 30.15 in. Hg (1021 hPa)
ob: LDSB 251400Z 02011KT 350V050 9999 FEW055 29/15 Q1021
cycle: 14

Station Type Date Time Source
LDSB TAF 2019/06/25 15:24 UTC NOAA

TAF
AMD TAF
AMD LDSB 251522Z 2515/2612 CNL

Example: see airport list